^^
Station Historical Data
Daily Summary for February 9, 2018 Units:  Both    English   Metric
« Previous Day
Next Day »
Daily Weekly Monthly Yearly Custom
  High: Low: Average:
Temperature: TemperatureC °F /  -17.8 °C -9.0 °F /  -22.8 °C -6.8 °F /  -21.6 °C
Dew Point: DewpointC °F /  -17.8 °C -10.2 °F /  -23.4 °C -7.9 °F /  -22.2 °C
Humidity: Humidity% 90% 92%
Wind Speed: WindSpeedKMHmph /  0km/h - 0.6mph /  1km/h
Wind Gust: WindSpeedGustKMHmph /  0km/h - -
Wind- - ESE
Pressure: PressurehPa in /  0 hPa 1020.9 in /  34567.7 hPa -
Precipitation: 0.0 in /  0 mm    
Historical Graphs
 
 
Tabular Data for February 9, 2018
Time Temperature Dew Point Pressure Wind Wind Speed Wind Gust Humidity Rainfall Rate (Hourly) solar Conditions
TemperatureC °F /  -17.8 °C DewpointC °F /  -17.8 °C PressurehPain /  0hPa Calm     Humidity% HourlyPrecipMMin /  0mm SoftwareType W/m2 Conditions
00:04 -7.9 °F /  -22.2 °C -9.2 °F /  -22.9 °C 1020.9in /  34567.7hPa Calm     91% 0.0in /  0mm WeatherDisplay:10.37 W/m2 RA
00:09 -8.1 °F /  -22.3 °C -9.3 °F /  -22.9 °C 1020.9in /  34567.7hPa Calm     91% 0.0in /  0mm WeatherDisplay:10.37 W/m2 RA
00:14 -8.3 °F /  -22.4 °C -9.7 °F /  -23.2 °C 1020.9in /  34567.7hPa Calm     90% 0.0in /  0mm WeatherDisplay:10.37 W/m2 FEW
00:19 -8.4 °F /  -22.4 °C -9.7 °F /  -23.2 °C 1020.9in /  34567.7hPa Calm     91% 0.0in /  0mm WeatherDisplay:10.37 W/m2 FEW
00:24 -8.6 °F /  -22.6 °C -9.8 °F /  -23.2 °C 1020.9in /  34567.7hPa Calm     91% 0.0in /  0mm WeatherDisplay:10.37 W/m2 FEW
00:29 -8.7 °F /  -22.6 °C -9.9 °F /  -23.3 °C 1020.9in /  34567.7hPa Calm     91% 0.0in /  0mm WeatherDisplay:10.37 W/m2 FEW
00:34 -8.8 °F /  -22.7 °C -10.0 °F /  -23.3 °C 1020.9in /  34567.7hPa Calm     91% 0.0in /  0mm WeatherDisplay:10.37 W/m2 FEW
00:39 -8.9 °F /  -22.7 °C -10.1 °F /  -23.4 °C 1020.9in /  34567.7hPa Calm     91% 0.0in /  0mm WeatherDisplay:10.37 W/m2 FEW
00:44 -8.9 °F /  -22.7 °C -10.2 °F /  -23.4 °C 1020.9in /  34567.7hPa Calm     91% 0.0in /  0mm WeatherDisplay:10.37 W/m2 FEW
00:49 -9.0 °F /  -22.8 °C -10.2 °F /  -23.4 °C 1020.9in /  34567.7hPa Calm     91% 0.0in /  0mm WeatherDisplay:10.37 W/m2 FEW
00:54 -9.0 °F /  -22.8 °C -10.2 °F /  -23.4 °C 1020.9in /  34567.7hPa Calm     91% 0.0in /  0mm WeatherDisplay:10.37 W/m2 FEW
00:59 -9.0 °F /  -22.8 °C -10.2 °F /  -23.4 °C 1021.2in /  34577.8hPa Calm     91% 0.0in /  0mm WeatherDisplay:10.37 W/m2 FEW
01:04 -8.9 °F /  -22.7 °C -10.0 °F /  -23.3 °C 1021.2in /  34577.8hPa Calm     92% 0.0in /  0mm WeatherDisplay:10.37 W/m2 FEW
01:09 -8.9 °F /  -22.7 °C -9.9 °F /  -23.3 °C 1020.9in /  34567.7hPa Calm     92% 0.0in /  0mm WeatherDisplay:10.37 W/m2 FEW
01:14 -8.8 °F /  -22.7 °C -9.9 °F /  -23.3 °C 1021.2in /  34577.8hPa Calm     92% 0.0in /  0mm WeatherDisplay:10.37 W/m2 FEW
01:19 -8.8 °F /  -22.7 °C -9.8 °F /  -23.2 °C 1021.2in /  34577.8hPa Calm     92% 0.0in /  0mm WeatherDisplay:10.37 W/m2 FEW
01:24 -8.7 °F /  -22.6 °C -9.8 °F /  -23.2 °C 1021.2in /  34577.8hPa Calm     92% 0.0in /  0mm WeatherDisplay:10.37 W/m2 FEW
01:29 -8.7 °F /  -22.6 °C -9.7 °F /  -23.2 °C 1021.2in /  34577.8hPa Calm     92% 0.0in /  0mm WeatherDisplay:10.37 W/m2 FEW
01:34 -8.6 °F /  -22.6 °C -9.5 °F /  -23.1 °C 1021.2in /  34577.8hPa Calm     93% 0.0in /  0mm WeatherDisplay:10.37 W/m2 FEW
01:39 -8.4 °F /  -22.4 °C -9.4 °F /  -23 °C 1021.2in /  34577.8hPa Calm     93% 0.0in /  0mm WeatherDisplay:10.37 W/m2 FEW
01:44 -8.4 °F /  -22.4 °C -9.3 °F /  -22.9 °C 1021.2in /  34577.8hPa Calm     93% 0.0in /  0mm WeatherDisplay:10.37 W/m2 FEW
01:49 -8.3 °F /  -22.4 °C -9.4 °F /  -23 °C 1021.2in /  34577.8hPa Calm     92% 0.0in /  0mm WeatherDisplay:10.37 W/m2 FEW
01:54 -8.3 °F /  -22.4 °C -9.4 °F /  -23 °C 1021.2in /  34577.8hPa Calm     92% 0.0in /  0mm WeatherDisplay:10.37 W/m2 FEW
01:59 -8.3 °F /  -22.4 °C -9.4 °F /  -23 °C 1021.2in /  34577.8hPa Calm     92% 0.0in /  0mm WeatherDisplay:10.37 W/m2 FEW
02:04 -8.3 °F /  -22.4 °C -9.3 °F /  -22.9 °C 1021.2in /  34577.8hPa Calm     92% 0.0in /  0mm WeatherDisplay:10.37 W/m2 FEW
02:09 -8.3 °F /  -22.4 °C -9.3 °F /  -22.9 °C 1021.2in /  34577.8hPa Calm     92% 0.0in /  0mm WeatherDisplay:10.37 W/m2 FEW
02:14 -8.3 °F /  -22.4 °C -9.2 °F /  -22.9 °C 1021.2in /  34577.8hPa Calm     93% 0.0in /  0mm WeatherDisplay:10.37 W/m2 FEW
02:19 -8.2 °F /  -22.3 °C -9.1 °F /  -22.8 °C 1021.2in /  34577.8hPa Calm     93% 0.0in /  0mm WeatherDisplay:10.37 W/m2 FEW
02:24 -8.2 °F /  -22.3 °C -9.1 °F /  -22.8 °C 1021.2in /  34577.8hPa Calm     93% 0.0in /  0mm WeatherDisplay:10.37 W/m2 FEW
02:29 -8.1 °F /  -22.3 °C -9.0 °F /  -22.8 °C 1021.2in /  34577.8hPa Calm     93% 0.0in /  0mm WeatherDisplay:10.37 W/m2 FEW
02:34 -7.9 °F /  -22.2 °C -8.9 °F /  -22.7 °C 1021.2in /  34577.8hPa Calm     93% 0.0in /  0mm WeatherDisplay:10.37 W/m2 FEW
02:39 -7.9 °F /  -22.2 °C -8.8 °F /  -22.7 °C 1021.2in /  34577.8hPa Calm     93% 0.0in /  0mm WeatherDisplay:10.37 W/m2 FEW
02:44 -7.8 °F /  -22.1 °C -8.7 °F /  -22.6 °C 1021.2in /  34577.8hPa Calm     93% 0.0in /  0mm WeatherDisplay:10.37 W/m2 FEW
02:49 -7.7 °F /  -22.1 °C -8.7 °F /  -22.6 °C 1021.2in /  34577.8hPa Calm     93% 0.0in /  0mm WeatherDisplay:10.37 W/m2 FEW
02:54 -7.6 °F /  -22 °C -8.6 °F /  -22.6 °C 1021.2in /  34577.8hPa Calm     93% 0.0in /  0mm WeatherDisplay:10.37 W/m2 FEW
02:59 -7.5 °F /  -21.9 °C -8.4 °F /  -22.4 °C 1021.2in /  34577.8hPa Calm     93% 0.0in /  0mm WeatherDisplay:10.37 W/m2 FEW
03:04 -7.4 °F /  -21.9 °C -8.3 °F /  -22.4 °C 1021.2in /  34577.8hPa Calm     93% 0.0in /  0mm WeatherDisplay:10.37 W/m2 FEW
03:09 -7.3 °F /  -21.8 °C -8.3 °F /  -22.4 °C 1021.2in /  34577.8hPa Calm     93% 0.0in /  0mm WeatherDisplay:10.37 W/m2 FEW
03:14 -7.2 °F /  -21.8 °C -8.2 °F /  -22.3 °C 1021.2in /  34577.8hPa Calm     93% 0.0in /  0mm WeatherDisplay:10.37 W/m2 FEW
03:19 -7.2 °F /  -21.8 °C -8.1 °F /  -22.3 °C 1021.2in /  34577.8hPa Calm     93% 0.0in /  0mm WeatherDisplay:10.37 W/m2 FEW
03:24 -7.1 °F /  -21.7 °C -8.1 °F /  -22.3 °C 1021.2in /  34577.8hPa Calm     93% 0.0in /  0mm WeatherDisplay:10.37 W/m2 FEW
03:29 -7.1 °F /  -21.7 °C -8.0 °F /  -22.2 °C 1021.2in /  34577.8hPa Calm     93% 0.0in /  0mm WeatherDisplay:10.37 W/m2 FEW
03:34 -7.0 °F /  -21.7 °C -7.9 °F /  -22.2 °C 1021.2in /  34577.8hPa Calm     93% 0.0in /  0mm WeatherDisplay:10.37 W/m2 FEW
03:39 -7.0 °F /  -21.7 °C -7.9 °F /  -22.2 °C 1021.2in /  34577.8hPa Calm     93% 0.0in /  0mm WeatherDisplay:10.37 W/m2 FEW
03:44 -6.9 °F /  -21.6 °C -7.9 °F /  -22.2 °C 1021.2in /  34577.8hPa Calm     93% 0.0in /  0mm WeatherDisplay:10.37 W/m2 FEW
03:49 -6.9 °F /  -21.6 °C -7.8 °F /  -22.1 °C 1021.2in /  34577.8hPa Calm     93% 0.0in /  0mm WeatherDisplay:10.37 W/m2 FEW
03:54 -6.8 °F /  -21.6 °C -7.8 °F /  -22.1 °C 1021.2in /  34577.8hPa Calm     93% 0.0in /  0mm WeatherDisplay:10.37 W/m2 FEW
03:59 -6.8 °F /  -21.6 °C -7.7 °F /  -22.1 °C 1021.2in /  34577.8hPa Calm     93% 0.0in /  0mm WeatherDisplay:10.37 W/m2 FEW
04:04 -6.8 °F /  -21.6 °C -7.7 °F /  -22.1 °C 1021.2in /  34577.8hPa Calm     93% 0.0in /  0mm WeatherDisplay:10.37 W/m2 FEW
04:09 -6.7 °F /  -21.5 °C -7.7 °F /  -22.1 °C 1021.2in /  34577.8hPa Calm     93% 0.0in /  0mm WeatherDisplay:10.37 W/m2 FEW
04:14 -6.8 °F /  -21.6 °C -7.8 °F /  -22.1 °C 1021.2in /  34577.8hPa South 0.3mph /  0.5km/h 1.6mph /  2.6km/h 92% 0.0in /  0mm WeatherDisplay:10.37 W/m2 FEW
04:19 -6.8 °F /  -21.6 °C -7.7 °F /  -22.1 °C 1021.2in /  34577.8hPa Calm     93% 0.0in /  0mm WeatherDisplay:10.37 W/m2 FEW
04:24 -6.8 °F /  -21.6 °C -7.8 °F /  -22.1 °C 1021.2in /  34577.8hPa Calm     92% 0.0in /  0mm WeatherDisplay:10.37 W/m2 FEW
04:29 -6.8 °F /  -21.6 °C -7.9 °F /  -22.2 °C 1021.2in /  34577.8hPa Calm     92% 0.0in /  0mm WeatherDisplay:10.37 W/m2 FEW
04:34 -6.8 °F /  -21.6 °C -7.9 °F /  -22.2 °C 1021.2in /  34577.8hPa Calm   1.9mph /  3.1km/h 92% 0.0in /  0mm WeatherDisplay:10.37 W/m2 FEW
04:39 -6.9 °F /  -21.6 °C -7.9 °F /  -22.2 °C 1021.2in /  34577.8hPa SSE 0.2mph /  0.3km/h 1.9mph /  3.1km/h 92% 0.0in /  0mm WeatherDisplay:10.37 W/m2 FEW
04:44 -6.9 °F /  -21.6 °C -7.9 °F /  -22.2 °C 1021.2in /  34577.8hPa Calm     92% 0.0in /  0mm WeatherDisplay:10.37 W/m2 FEW
04:49 -6.9 °F /  -21.6 °C -8.0 °F /  -22.2 °C 1021.2in /  34577.8hPa Calm     92% 0.0in /  0mm WeatherDisplay:10.37 W/m2 FEW
04:54 -6.9 °F /  -21.6 °C -8.0 °F /  -22.2 °C 1021.2in /  34577.8hPa Calm     92% 0.0in /  0mm WeatherDisplay:10.37 W/m2 FEW
04:59 -6.9 °F /  -21.6 °C -8.0 °F /  -22.2 °C 1021.2in /  34577.8hPa Calm     92% 0.0in /  0mm WeatherDisplay:10.37 W/m2 FEW
05:04 -6.9 °F /  -21.6 °C -7.9 °F /  -22.2 °C 1021.2in /  34577.8hPa Calm     92% 0.0in /  0mm WeatherDisplay:10.37 W/m2 FEW
05:09 -6.9 °F /  -21.6 °C -7.9 °F /  -22.2 °C 1021.6in /  34591.4hPa Calm     92% 0.0in /  0mm WeatherDisplay:10.37 W/m2 FEW
05:14 -6.9 °F /  -21.6 °C -7.9 °F /  -22.2 °C 1021.6in /  34591.4hPa Calm     92% 0.0in /  0mm WeatherDisplay:10.37 W/m2 FEW
05:19 -6.9 °F /  -21.6 °C -7.9 °F /  -22.2 °C 1021.6in /  34591.4hPa ESE 2.9mph /  4.7km/h 5.6mph /  9km/h 92% 0.0in /  0mm WeatherDisplay:10.37 W/m2 FEW
05:24 -6.9 °F /  -21.6 °C -7.9 °F /  -22.2 °C 1021.2in /  34577.8hPa ENE 3.1mph /  5km/h 5.6mph /  9km/h 92% 0.0in /  0mm WeatherDisplay:10.37 W/m2 FEW
05:29 -6.9 °F /  -21.6 °C -8.0 °F /  -22.2 °C 1021.2in /  34577.8hPa SE 0.5mph /  0.8km/h 5.6mph /  9km/h 92% 0.0in /  0mm WeatherDisplay:10.37 W/m2 FEW
05:34 -6.9 °F /  -21.6 °C -8.0 °F /  -22.2 °C 1021.2in /  34577.8hPa Calm     92% 0.0in /  0mm WeatherDisplay:10.37 W/m2 FEW
05:39 -7.0 °F /  -21.7 °C -8.1 °F /  -22.3 °C 1021.2in /  34577.8hPa East 2.9mph /  4.7km/h 7.4mph /  11.9km/h 92% 0.0in /  0mm WeatherDisplay:10.37 W/m2 FEW
05:44 -7.0 °F /  -21.7 °C -8.1 °F /  -22.3 °C 1021.2in /  34577.8hPa Calm     92% 0.0in /  0mm WeatherDisplay:10.37 W/m2 FEW
05:49 -7.1 °F /  -21.7 °C -8.1 °F /  -22.3 °C 1021.2in /  34577.8hPa ESE 2.1mph /  3.4km/h 5.6mph /  9km/h 92% 0.0in /  0mm WeatherDisplay:10.37 W/m2 FEW
05:54 -7.1 °F /  -21.7 °C -8.2 °F /  -22.3 °C 1020.9in /  34567.7hPa SE 3.1mph /  5km/h 5.6mph /  9km/h 92% 0.0in /  0mm WeatherDisplay:10.37 W/m2 FEW
05:59 -7.2 °F /  -21.8 °C -8.2 °F /  -22.3 °C 1020.9in /  34567.7hPa Calm     92% 0.0in /  0mm WeatherDisplay:10.37 W/m2 FEW
06:04 -7.2 °F /  -21.8 °C -8.3 °F /  -22.4 °C 1020.9in /  34567.7hPa ESE 3.4mph /  5.5km/h 5.6mph /  9km/h 92% 0.0in /  0mm WeatherDisplay:10.37 W/m2 FEW
06:09 -7.2 °F /  -21.8 °C -8.3 °F /  -22.4 °C 1021.2in /  34577.8hPa East 2.1mph /  3.4km/h 3.7mph /  6km/h 92% 0.0in /  0mm WeatherDisplay:10.37 W/m2 FEW
06:14 -7.2 °F /  -21.8 °C -8.3 °F /  -22.4 °C 1021.2in /  34577.8hPa ESE 0.3mph /  0.5km/h 5.6mph /  9km/h 92% 0.0in /  0mm WeatherDisplay:10.37 W/m2 FEW
06:19 -7.2 °F /  -21.8 °C -8.3 °F /  -22.4 °C 1021.2in /  34577.8hPa SE 1.9mph /  3.1km/h 5.6mph /  9km/h 92% 0.0in /  0mm WeatherDisplay:10.37 W/m2 FEW
06:24 -7.3 °F /  -21.8 °C -8.3 °F /  -22.4 °C 1021.2in /  34577.8hPa SE 2.4mph /  3.9km/h 5.6mph /  9km/h 92% 0.0in /  0mm WeatherDisplay:10.37 W/m2 FEW
06:29 -7.3 °F /  -21.8 °C -8.3 °F /  -22.4 °C 1021.2in /  34577.8hPa Calm     92% 0.0in /  0mm WeatherDisplay:10.37 W/m2 FEW
06:34 -7.3 °F /  -21.8 °C -8.3 °F /  -22.4 °C 1021.2in /  34577.8hPa Calm     92% 0.0in /  0mm WeatherDisplay:10.37 W/m2 FEW
06:39 -7.3 °F /  -21.8 °C -8.3 °F /  -22.4 °C 1021.2in /  34577.8hPa ESE 0.6mph /  1km/h 3.7mph /  6km/h 92% 0.0in /  0mm WeatherDisplay:10.37 W/m2 FEW
06:44 -7.3 °F /  -21.8 °C -8.3 °F /  -22.4 °C 1021.2in /  34577.8hPa ESE 2.9mph /  4.7km/h 5.6mph /  9km/h 92% 0.0in /  0mm WeatherDisplay:10.37 W/m2 FEW
06:49 -7.3 °F /  -21.8 °C -8.3 °F /  -22.4 °C 1021.2in /  34577.8hPa ENE 1.0mph /  1.6km/h 3.7mph /  6km/h 92% 0.0in /  0mm WeatherDisplay:10.37 W/m2 FEW
06:54 -7.3 °F /  -21.8 °C -8.3 °F /  -22.4 °C 1021.2in /  34577.8hPa ESE 1.1mph /  1.8km/h 1.6mph /  2.6km/h 93% 0.0in /  0mm WeatherDisplay:10.37 W/m2 FEW
06:59 -7.3 °F /  -21.8 °C -8.3 °F /  -22.4 °C 1021.6in /  34591.4hPa Calm     93% 0.0in /  0mm WeatherDisplay:10.37 W/m2 FEW
07:04 -7.3 °F /  -21.8 °C -8.3 °F /  -22.4 °C 1021.6in /  34591.4hPa Calm     93% 0.0in /  0mm WeatherDisplay:10.37 W/m2 FEW
07:09 -7.3 °F /  -21.8 °C -8.2 °F /  -22.3 °C 1021.6in /  34591.4hPa Calm     93% 0.0in /  0mm WeatherDisplay:10.37 W/m2 FEW
07:14 -7.3 °F /  -21.8 °C -8.3 °F /  -22.4 °C 1021.6in /  34591.4hPa Calm     93% 0.0in /  0mm WeatherDisplay:10.37 W/m2 FEW
07:19 -7.3 °F /  -21.8 °C -8.2 °F /  -22.3 °C 1021.6in /  34591.4hPa Calm   1.9mph /  3.1km/h 93% 0.0in /  0mm WeatherDisplay:10.37 W/m2 FEW
07:24 -7.3 °F /  -21.8 °C -8.2 °F /  -22.3 °C 1021.6in /  34591.4hPa ESE 0.2mph /  0.3km/h 1.9mph /  3.1km/h 93% 0.0in /  0mm WeatherDisplay:10.37 W/m2 FEW
07:29 -7.3 °F /  -21.8 °C -8.2 °F /  -22.3 °C 1021.6in /  34591.4hPa ESE 0.2mph /  0.3km/h 5.6mph /  9km/h 93% 0.0in /  0mm WeatherDisplay:10.37 W/m2 FEW
07:34 -7.3 °F /  -21.8 °C -8.2 °F /  -22.3 °C 1021.6in /  34591.4hPa ESE 1.0mph /  1.6km/h 5.6mph /  9km/h 93% 0.0in /  0mm WeatherDisplay:10.37 W/m2 FEW
07:39 -7.3 °F /  -21.8 °C -8.2 °F /  -22.3 °C 1021.6in /  34591.4hPa ESE 0.6mph /  1km/h 3.7mph /  6km/h 93% 0.0in /  0mm WeatherDisplay:10.37 W/m2 FEW
07:44 -7.3 °F /  -21.8 °C -8.2 °F /  -22.3 °C 1021.6in /  34591.4hPa ESE 1.4mph /  2.3km/h 7.4mph /  11.9km/h 93% 0.0in /  0mm WeatherDisplay:10.37 W/m2 FEW
07:49 -7.3 °F /  -21.8 °C -8.2 °F /  -22.3 °C 1021.6in /  34591.4hPa ESE 1.6mph /  2.6km/h 5.6mph /  9km/h 93% 0.0in /  0mm WeatherDisplay:10.37 W/m2 FEW
07:54 -7.3 °F /  -21.8 °C -8.2 °F /  -22.3 °C 1021.6in /  34591.4hPa Calm   3.7mph /  6km/h 93% 0.0in /  0mm WeatherDisplay:10.37 W/m2 FEW
07:59 -7.2 °F /  -21.8 °C -8.2 °F /  -22.3 °C 1021.6in /  34591.4hPa Calm     93% 0.0in /  0mm WeatherDisplay:10.37 W/m2 FEW
08:04 -7.2 °F /  -21.8 °C -8.2 °F /  -22.3 °C 1021.6in /  34591.4hPa ESE 1.3mph /  2.1km/h 3.7mph /  6km/h 93% 0.0in /  0mm WeatherDisplay:10.37 W/m2 FEW
08:09 -7.2 °F /  -21.8 °C -8.2 °F /  -22.3 °C 1021.6in /  34591.4hPa ESE 0.8mph /  1.3km/h 5.6mph /  9km/h 93% 0.0in /  0mm WeatherDisplay:10.37 W/m2 FEW
08:14 -7.2 °F /  -21.8 °C -8.2 °F /  -22.3 °C 1021.6in /  34591.4hPa Calm     93% 0.0in /  0mm WeatherDisplay:10.37 W/m2 FEW
08:19 -7.2 °F /  -21.8 °C -8.2 °F /  -22.3 °C 1021.6in /  34591.4hPa Calm     93% 0.0in /  0mm WeatherDisplay:10.37 W/m2 FEW
08:24 -7.2 °F /  -21.8 °C -8.2 °F /  -22.3 °C 1021.6in /  34591.4hPa Calm     93% 0.0in /  0mm WeatherDisplay:10.37 W/m2 FEW
08:29 -7.2 °F /  -21.8 °C -8.1 °F /  -22.3 °C 1021.6in /  34591.4hPa SE 1.3mph /  2.1km/h 5.6mph /  9km/h 93% 0.0in /  0mm WeatherDisplay:10.37 W/m2 FEW
08:34 -7.2 °F /  -21.8 °C -8.1 °F /  -22.3 °C 1021.9in /  34601.5hPa Calm     93% 0.0in /  0mm WeatherDisplay:10.37 W/m2 FEW
08:39 -7.2 °F /  -21.8 °C -8.1 °F /  -22.3 °C 1021.9in /  34601.5hPa SE 1.1mph /  1.8km/h   93% 0.0in /  0mm WeatherDisplay:10.37 W/m2 FEW
08:44 -7.2 °F /  -21.8 °C -8.1 °F /  -22.3 °C 1021.9in /  34601.5hPa SSE 2.1mph /  3.4km/h 5.6mph /  9km/h 93% 0.0in /  0mm WeatherDisplay:10.37 W/m2 FEW
08:49 -7.1 °F /  -21.7 °C -8.1 °F /  -22.3 °C 1021.9in /  34601.5hPa Calm     93% 0.0in /  0mm WeatherDisplay:10.37 W/m2 FEW
08:54 -7.1 °F /  -21.7 °C -8.0 °F /  -22.2 °C 1021.9in /  34601.5hPa Calm     93% 0.0in /  0mm WeatherDisplay:10.37 W/m2 FEW
08:59 -7.1 °F /  -21.7 °C -8.0 °F /  -22.2 °C 1021.9in /  34601.5hPa Calm     93% 0.0in /  0mm WeatherDisplay:10.37 W/m2 FEW
09:04 -7.0 °F /  -21.7 °C -7.9 °F /  -22.2 °C 1021.9in /  34601.5hPa SE 2.3mph /  3.7km/h 5.6mph /  9km/h 93% 0.0in /  0mm WeatherDisplay:10.37 W/m2 FEW
09:09 -7.0 °F /  -21.7 °C -7.9 °F /  -22.2 °C 1021.9in /  34601.5hPa SE 1.6mph /  2.6km/h 3.7mph /  6km/h 93% 0.0in /  0mm WeatherDisplay:10.37 W/m2 FEW
09:14 -7.1 °F /  -21.7 °C -8.1 °F /  -22.3 °C 1021.9in /  34601.5hPa Calm   3.7mph /  6km/h 92% 0.0in /  0mm WeatherDisplay:10.37 W/m2 FEW
09:19 -7.1 °F /  -21.7 °C -8.1 °F /  -22.3 °C 1021.9in /  34601.5hPa SE 2.1mph /  3.4km/h 5.6mph /  9km/h 92% 0.0in /  0mm WeatherDisplay:10.37 W/m2 FEW
09:24 -7.1 °F /  -21.7 °C -8.0 °F /  -22.2 °C 1021.9in /  34601.5hPa Calm     93% 0.0in /  0mm WeatherDisplay:10.37 W/m2 FEW
09:29 -7.1 °F /  -21.7 °C -8.1 °F /  -22.3 °C 1021.9in /  34601.5hPa Calm     92% 0.0in /  0mm WeatherDisplay:10.37 W/m2 FEW
09:34 -7.1 °F /  -21.7 °C -8.0 °F /  -22.2 °C 1021.9in /  34601.5hPa SE 0.3mph /  0.5km/h 4.8mph /  7.7km/h 93% 0.0in /  0mm WeatherDisplay:10.37 W/m2 FEW
09:39 -7.1 °F /  -21.7 °C -8.1 °F /  -22.3 °C 1021.9in /  34601.5hPa Calm     93% 0.0in /  0mm WeatherDisplay:10.37 W/m2 FEW
09:44 -7.1 °F /  -21.7 °C -8.1 °F /  -22.3 °C 1022.2in /  34611.7hPa SE 1.0mph /  1.6km/h 3.2mph /  5.1km/h 92% 0.0in /  0mm WeatherDisplay:10.37 W/m2 FEW
09:49 -7.1 °F /  -21.7 °C -8.0 °F /  -22.2 °C 1022.2in /  34611.7hPa Calm     93% 0.0in /  0mm WeatherDisplay:10.37 W/m2 FEW
09:54 -7.0 °F /  -21.7 °C -7.9 °F /  -22.2 °C 1022.2in /  34611.7hPa SE 0.3mph /  0.5km/h 3.7mph /  6km/h 93% 0.0in /  0mm WeatherDisplay:10.37 W/m2 FEW
09:59 -7.0 °F /  -21.7 °C -8.1 °F /  -22.3 °C 1022.2in /  34611.7hPa Calm     92% 0.0in /  0mm WeatherDisplay:10.37 W/m2 FEW
10:04 -7.0 °F /  -21.7 °C -7.9 °F /  -22.2 °C 1022.2in /  34611.7hPa Calm     93% 0.0in /  0mm WeatherDisplay:10.37 W/m2 FEW
10:09 -6.9 °F /  -21.6 °C -7.9 °F /  -22.2 °C 1022.2in /  34611.7hPa Calm     93% 0.0in /  0mm WeatherDisplay:10.37 W/m2 FEW
10:14 -6.8 °F /  -21.6 °C -7.8 °F /  -22.1 °C 1022.2in /  34611.7hPa Calm     93% 0.0in /  0mm WeatherDisplay:10.37 W/m2 FEW
10:19 -6.8 °F /  -21.6 °C -7.9 °F /  -22.2 °C 1022.2in /  34611.7hPa ESE 2.3mph /  3.7km/h 5.6mph /  9km/h 92% 0.0in /  0mm WeatherDisplay:10.37 W/m2 FEW
10:24 -6.8 °F /  -21.6 °C -7.8 °F /  -22.1 °C 1022.2in /  34611.7hPa ESE 0.3mph /  0.5km/h 5.6mph /  9km/h 92% 0.0in /  0mm WeatherDisplay:10.37 W/m2 FEW
10:29 -6.7 °F /  -21.5 °C -7.8 °F /  -22.1 °C 1022.2in /  34611.7hPa ESE 1.3mph /  2.1km/h 3.7mph /  6km/h 92% 0.0in /  0mm WeatherDisplay:10.37 W/m2 FEW
10:34 -6.7 °F /  -21.5 °C -7.8 °F /  -22.1 °C 1022.2in /  34611.7hPa Calm     92% 0.0in /  0mm WeatherDisplay:10.37 W/m2 FEW
10:39 -6.7 °F /  -21.5 °C -7.7 °F /  -22.1 °C 1022.2in /  34611.7hPa Calm     92% 0.0in /  0mm WeatherDisplay:10.37 W/m2 FEW
10:45 -6.6 °F /  -21.4 °C -7.7 °F /  -22.1 °C 1022.2in /  34611.7hPa Calm     92% 0.0in /  0mm WeatherDisplay:10.37 W/m2 FEW
10:50 -6.5 °F /  -21.4 °C -7.6 °F /  -22 °C 1022.6in /  34625.2hPa ESE 1.3mph /  2.1km/h 5.6mph /  9km/h 92% 0.0in /  0mm WeatherDisplay:10.37 W/m2 FEW
10:55 -6.5 °F /  -21.4 °C -7.6 °F /  -22 °C 1022.6in /  34625.2hPa SE 1.3mph /  2.1km/h 3.7mph /  6km/h 92% 0.0in /  0mm WeatherDisplay:10.37 W/m2 FEW
11:00 -6.4 °F /  -21.3 °C -7.6 °F /  -22 °C 1022.6in /  34625.2hPa SE 0.5mph /  0.8km/h 4.8mph /  7.7km/h 92% 0.0in /  0mm WeatherDisplay:10.37 W/m2 FEW
11:05 -6.4 °F /  -21.3 °C -7.6 °F /  -22 °C 1022.6in /  34625.2hPa SE 0.6mph /  1km/h 3.7mph /  6km/h 92% 0.0in /  0mm WeatherDisplay:10.37 W/m2 FEW
11:11 -6.4 °F /  -21.3 °C -7.6 °F /  -22 °C 1022.6in /  34625.2hPa Calm     92% 0.0in /  0mm WeatherDisplay:10.37 W/m2 FEW
11:16 -6.4 °F /  -21.3 °C -7.6 °F /  -22 °C 1022.2in /  34611.7hPa ESE 1.9mph /  3.1km/h 3.7mph /  6km/h 92% 0.0in /  0mm WeatherDisplay:10.37 W/m2 FEW
11:21 -6.4 °F /  -21.3 °C -7.7 °F /  -22.1 °C 1022.6in /  34625.2hPa Calm     91% 0.0in /  0mm WeatherDisplay:10.37 W/m2 FEW
11:26 -6.4 °F /  -21.3 °C -7.7 °F /  -22.1 °C 1022.2in /  34611.7hPa SE 0.8mph /  1.3km/h 6.4mph /  10.3km/h 91% 0.0in /  0mm WeatherDisplay:10.37 W/m2 FEW
11:31 -6.4 °F /  -21.3 °C -7.7 °F /  -22.1 °C 1022.2in /  34611.7hPa SE 3.2mph /  5.1km/h 5.6mph /  9km/h 91% 0.0in /  0mm WeatherDisplay:10.37 W/m2 FEW
11:36 -6.4 °F /  -21.3 °C -7.7 °F /  -22.1 °C 1022.6in /  34625.2hPa SE 0.5mph /  0.8km/h 7.4mph /  11.9km/h 91% 0.0in /  0mm WeatherDisplay:10.37 W/m2 FEW
11:41 -6.4 °F /  -21.3 °C -7.7 °F /  -22.1 °C 1022.6in /  34625.2hPa Calm   3.2mph /  5.1km/h 91% 0.0in /  0mm WeatherDisplay:10.37 W/m2 FEW
11:46 -6.4 °F /  -21.3 °C -7.6 °F /  -22 °C 1022.6in /  34625.2hPa ESE 3.4mph /  5.5km/h 7.4mph /  11.9km/h 91% 0.0in /  0mm WeatherDisplay:10.37 W/m2 FEW
11:51 -6.4 °F /  -21.3 °C -7.6 °F /  -22 °C 1022.6in /  34625.2hPa Calm     91% 0.0in /  0mm WeatherDisplay:10.37 W/m2 FEW
11:56 -6.3 °F /  -21.3 °C -7.6 °F /  -22 °C 1022.6in /  34625.2hPa ESE 0.8mph /  1.3km/h 3.7mph /  6km/h 91% 0.0in /  0mm WeatherDisplay:10.37 W/m2 FEW
12:01 -6.3 °F /  -21.3 °C -7.6 °F /  -22 °C 1022.6in /  34625.2hPa Calm   1.6mph /  2.6km/h 91% 0.0in /  0mm WeatherDisplay:10.37 W/m2 FEW
12:06 -6.2 °F /  -21.2 °C -7.4 °F /  -21.9 °C 1022.6in /  34625.2hPa ESE 3.9mph /  6.3km/h 5.6mph /  9km/h 91% 0.0in /  0mm WeatherDisplay:10.37 W/m2 FEW
12:11 -6.2 °F /  -21.2 °C -7.4 °F /  -21.9 °C 1022.6in /  34625.2hPa Calm     91% 0.0in /  0mm WeatherDisplay:10.37 W/m2 FEW
12:16 -6.3 °F /  -21.3 °C -7.5 °F /  -21.9 °C 1022.6in /  34625.2hPa ESE 2.4mph /  3.9km/h 9.3mph /  15km/h 91% 0.0in /  0mm WeatherDisplay:10.37 W/m2 FEW
12:21 -6.3 °F /  -21.3 °C -7.7 °F /  -22.1 °C 1022.6in /  34625.2hPa Calm     90% 0.0in /  0mm WeatherDisplay:10.37 W/m2 FEW
12:26 -6.3 °F /  -21.3 °C -7.5 °F /  -21.9 °C 1022.6in /  34625.2hPa Calm     91% 0.0in /  0mm WeatherDisplay:10.37 W/m2 FEW
12:31 -6.2 °F /  -21.2 °C -7.4 °F /  -21.9 °C 1022.6in /  34625.2hPa Calm     91% 0.0in /  0mm WeatherDisplay:10.37 W/m2 FEW
12:36 -6.2 °F /  -21.2 °C -7.4 °F /  -21.9 °C 1022.6in /  34625.2hPa ESE 0.8mph /  1.3km/h 5.6mph /  9km/h 91% 0.0in /  0mm WeatherDisplay:10.37 W/m2 FEW
12:41 -6.2 °F /  -21.2 °C -7.4 °F /  -21.9 °C 1022.6in /  34625.2hPa SE 2.3mph /  3.7km/h 7.4mph /  11.9km/h 91% 0.0in /  0mm WeatherDisplay:10.37 W/m2 FEW
12:46 -6.2 °F /  -21.2 °C -7.4 °F /  -21.9 °C 1022.6in /  34625.2hPa Calm     91% 0.0in /  0mm WeatherDisplay:10.37 W/m2 FEW
12:51 -6.1 °F /  -21.2 °C -7.3 °F /  -21.8 °C 1022.6in /  34625.2hPa Calm   1.9mph /  3.1km/h 91% 0.0in /  0mm WeatherDisplay:10.37 W/m2 FEW
12:56 -6.1 °F /  -21.2 °C -7.4 °F /  -21.9 °C 1022.6in /  34625.2hPa SE 1.0mph /  1.6km/h 3.2mph /  5.1km/h 90% 0.0in /  0mm WeatherDisplay:10.37 W/m2 FEW
13:01 -6.1 °F /  -21.2 °C -7.4 °F /  -21.9 °C 1022.9in /  34635.4hPa Calm     90% 0.0in /  0mm WeatherDisplay:10.37 W/m2 FEW
13:06 -6.0 °F /  -21.1 °C -7.4 °F /  -21.9 °C 1022.6in /  34625.2hPa Calm     90% 0.0in /  0mm WeatherDisplay:10.37 W/m2 FEW
13:11 -6.0 °F /  -21.1 °C -7.4 °F /  -21.9 °C 1022.6in /  34625.2hPa SE 1.3mph /  2.1km/h 3.7mph /  6km/h 90% 0.0in /  0mm WeatherDisplay:10.37 W/m2 FEW
13:16 -6.1 °F /  -21.2 °C -7.4 °F /  -21.9 °C 1022.6in /  34625.2hPa SE 2.4mph /  3.9km/h 5.6mph /  9km/h 90% 0.0in /  0mm WeatherDisplay:10.37 W/m2 FEW
13:21 -6.1 °F /  -21.2 °C -7.4 °F /  -21.9 °C 1022.6in /  34625.2hPa SE 3.1mph /  5km/h 3.7mph /  6km/h 90% 0.0in /  0mm WeatherDisplay:10.37 W/m2 FEW
13:26 -6.1 °F /  -21.2 °C -7.4 °F /  -21.9 °C 1022.6in /  34625.2hPa SE 1.1mph /  1.8km/h 3.2mph /  5.1km/h 90% 0.0in /  0mm WeatherDisplay:10.37 W/m2 FEW
13:31 -6.1 °F /  -21.2 °C -7.4 °F /  -21.9 °C 1022.6in /  34625.2hPa SE 3.2mph /  5.1km/h 5.6mph /  9km/h 90% 0.0in /  0mm WeatherDisplay:10.37 W/m2 FEW
13:36 -6.1 °F /  -21.2 °C -7.5 °F /  -21.9 °C 1022.6in /  34625.2hPa SE 0.6mph /  1km/h 3.7mph /  6km/h 90% 0.0in /  0mm WeatherDisplay:10.37 W/m2 FEW
13:41 -6.1 °F /  -21.2 °C -7.5 °F /  -21.9 °C 1022.9in /  34635.4hPa SE 1.1mph /  1.8km/h 3.2mph /  5.1km/h 90% 0.0in /  0mm WeatherDisplay:10.37 W/m2 FEW
13:46 -6.1 °F /  -21.2 °C -7.4 °F /  -21.9 °C 1022.9in /  34635.4hPa Calm   3.7mph /  6km/h 90% 0.0in /  0mm WeatherDisplay:10.37 W/m2 FEW
13:51 -6.1 °F /  -21.2 °C -7.4 °F /  -21.9 °C 1022.6in /  34625.2hPa SE 1.6mph /  2.6km/h 3.7mph /  6km/h 90% 0.0in /  0mm WeatherDisplay:10.37 W/m2 FEW
13:56 -6.1 °F /  -21.2 °C -7.4 °F /  -21.9 °C 1022.6in /  34625.2hPa Calm     90% 0.0in /  0mm WeatherDisplay:10.37 W/m2 FEW
14:01 -6.1 °F /  -21.2 °C -7.4 °F /  -21.9 °C 1022.6in /  34625.2hPa SE 0.3mph /  0.5km/h 5.6mph /  9km/h 90% 0.0in /  0mm WeatherDisplay:10.37 W/m2 FEW
14:06 -6.0 °F /  -21.1 °C -7.4 °F /  -21.9 °C 1022.6in /  34625.2hPa Calm     90% 0.0in /  0mm WeatherDisplay:10.37 W/m2 FEW
14:11 -6.0 °F /  -21.1 °C -7.4 °F /  -21.9 °C 1022.6in /  34625.2hPa SE 0.5mph /  0.8km/h 3.7mph /  6km/h 90% 0.0in /  0mm WeatherDisplay:10.37 W/m2 FEW
14:16 -6.0 °F /  -21.1 °C -7.4 °F /  -21.9 °C 1022.6in /  34625.2hPa SE 1.0mph /  1.6km/h 5.6mph /  9km/h 90% 0.0in /  0mm WeatherDisplay:10.37 W/m2 FEW
14:21 -6.0 °F /  -21.1 °C -7.4 °F /  -21.9 °C 1022.6in /  34625.2hPa Calm   1.9mph /  3.1km/h 90% 0.0in /  0mm WeatherDisplay:10.37 W/m2 FEW
14:26 -6.0 °F /  -21.1 °C -7.4 °F /  -21.9 °C 1022.6in /  34625.2hPa SE 2.1mph /  3.4km/h 5.6mph /  9km/h 90% 0.0in /  0mm WeatherDisplay:10.37 W/m2 FEW
14:31 -6.0 °F /  -21.1 °C -7.4 °F /  -21.9 °C 1022.6in /  34625.2hPa SE 1.4mph /  2.3km/h 11.1mph /  17.9km/h 90% 0.0in /  0mm WeatherDisplay:10.37 W/m2 FEW
14:36 -6.1 °F /  -21.2 °C -7.5 °F /  -21.9 °C 1022.6in /  34625.2hPa ESE 3.7mph /  6km/h 5.6mph /  9km/h 90% 0.0in /  0mm WeatherDisplay:10.37 W/m2 FEW
14:41 -6.2 °F /  -21.2 °C -7.6 °F /  -22 °C 1022.6in /  34625.2hPa Calm   3.7mph /  6km/h 90% 0.0in /  0mm WeatherDisplay:10.37 W/m2 FEW
14:46 -6.2 °F /  -21.2 °C -7.6 °F /  -22 °C 1022.6in /  34625.2hPa SE 1.3mph /  2.1km/h 5.6mph /  9km/h 90% 0.0in /  0mm WeatherDisplay:10.37 W/m2 FEW
14:51 -6.2 °F /  -21.2 °C -7.6 °F /  -22 °C 1022.6in /  34625.2hPa SE 0.8mph /  1.3km/h 5.6mph /  9km/h 90% 0.0in /  0mm WeatherDisplay:10.37 W/m2 FEW
14:56 -6.1 °F /  -21.2 °C -7.3 °F /  -21.8 °C 1022.6in /  34625.2hPa SE 0.3mph /  0.5km/h 5.6mph /  9km/h 91% 0.0in /  0mm WeatherDisplay:10.37 W/m2 FEW
15:01 -6.1 °F /  -21.2 °C -7.3 °F /  -21.8 °C 1022.6in /  34625.2hPa SE 1.8mph /  2.9km/h 3.7mph /  6km/h 91% 0.0in /  0mm WeatherDisplay:10.37 W/m2 FEW
15:06 -6.1 °F /  -21.2 °C -7.5 °F /  -21.9 °C 1022.6in /  34625.2hPa Calm     90% 0.0in /  0mm WeatherDisplay:10.37 W/m2 FEW
15:11 -6.1 °F /  -21.2 °C -7.5 °F /  -21.9 °C 1022.6in /  34625.2hPa Calm   3.7mph /  6km/h 90% 0.0in /  0mm WeatherDisplay:10.37 W/m2 FEW
15:16 -6.2 °F /  -21.2 °C -7.6 °F /  -22 °C 1022.6in /  34625.2hPa SE 1.3mph /  2.1km/h 4.8mph /  7.7km/h 90% 0.0in /  0mm WeatherDisplay:10.37 W/m2 FEW
15:21 -6.3 °F /  -21.3 °C -7.7 °F /  -22.1 °C 1022.6in /  34625.2hPa SE 3.4mph /  5.5km/h 5.6mph /  9km/h 90% 0.0in /  0mm WeatherDisplay:10.37 W/m2 FEW
15:26 -6.4 °F /  -21.3 °C -7.8 °F /  -22.1 °C 1022.6in /  34625.2hPa Calm     90% 0.0in /  0mm WeatherDisplay:10.37 W/m2 FEW
15:31 -6.4 °F /  -21.3 °C -7.8 °F /  -22.1 °C 1022.6in /  34625.2hPa SE 1.6mph /  2.6km/h 5.6mph /  9km/h 90% 0.0in /  0mm WeatherDisplay:10.37 W/m2 FEW
15:36 -6.5 °F /  -21.4 °C -7.9 °F /  -22.2 °C 1022.6in /  34625.2hPa SE 2.4mph /  3.9km/h 6.4mph /  10.3km/h 90% 0.0in /  0mm WeatherDisplay:10.37 W/m2 FEW
15:41 -6.6 °F /  -21.4 °C -7.8 °F /  -22.1 °C 1022.6in /  34625.2hPa SE 3.2mph /  5.1km/h 5.6mph /  9km/h 91% 0.0in /  0mm WeatherDisplay:10.37 W/m2 FEW
15:46 -6.6 °F /  -21.4 °C -7.8 °F /  -22.1 °C 1022.6in /  34625.2hPa Calm     91% 0.0in /  0mm WeatherDisplay:10.37 W/m2 FEW
15:51 -6.6 °F /  -21.4 °C -7.8 °F /  -22.1 °C 1022.6in /  34625.2hPa Calm     91% 0.0in /  0mm WeatherDisplay:10.37 W/m2 FEW
15:56 -6.6 °F /  -21.4 °C -7.8 °F /  -22.1 °C 1022.6in /  34625.2hPa Calm     91% 0.0in /  0mm WeatherDisplay:10.37 W/m2 FEW
15:59 -6.7 °F /  -21.5 °C -7.9 °F /  -22.2 °C 1022.6in /  34625.2hPa Calm     91% 0.0in /  0mm WeatherDisplay:10.37 W/m2 FEW
16:04 -6.7 °F /  -21.5 °C -7.9 °F /  -22.2 °C 1022.6in /  34625.2hPa SE 0.8mph /  1.3km/h 4.8mph /  7.7km/h 91% 0.0in /  0mm WeatherDisplay:10.37 W/m2 FEW
16:09 -6.7 °F /  -21.5 °C -7.9 °F /  -22.2 °C 1022.6in /  34625.2hPa SE 1.6mph /  2.6km/h 5.6mph /  9km/h 91% 0.0in /  0mm WeatherDisplay:10.37 W/m2 FEW
16:14 -6.8 °F /  -21.6 °C -8.0 °F /  -22.2 °C 1022.6in /  34625.2hPa Calm     91% 0.0in /  0mm WeatherDisplay:10.37 W/m2 FEW
16:19 -6.8 °F /  -21.6 °C -8.0 °F /  -22.2 °C 1022.9in /  34635.4hPa ESE 0.6mph /  1km/h   91% 0.0in /  0mm WeatherDisplay:10.37 W/m2 FEW
16:24 -6.8 °F /  -21.6 °C -8.1 °F /  -22.3 °C 1022.9in /  34635.4hPa ESE 1.4mph /  2.3km/h 5.6mph /  9km/h 91% 0.0in /  0mm WeatherDisplay:10.37 W/m2 FEW
16:29 -6.8 °F /  -21.6 °C -8.1 °F /  -22.3 °C 1022.9in /  34635.4hPa SE 0.3mph /  0.5km/h 5.6mph /  9km/h 91% 0.0in /  0mm WeatherDisplay:10.37 W/m2 FEW
16:34 -6.8 °F /  -21.6 °C -8.1 °F /  -22.3 °C 1022.9in /  34635.4hPa ESE 4.2mph /  6.8km/h 9.7mph /  15.6km/h 91% 0.0in /  0mm WeatherDisplay:10.37 W/m2 FEW
16:39 -6.9 °F /  -21.6 °C -8.1 °F /  -22.3 °C 1022.9in /  34635.4hPa ESE 1.0mph /  1.6km/h 3.7mph /  6km/h 91% 0.0in /  0mm WeatherDisplay:10.37 W/m2 FEW
16:44 -6.9 °F /  -21.6 °C -8.2 °F /  -22.3 °C 1022.9in /  34635.4hPa ESE 1.0mph /  1.6km/h 3.7mph /  6km/h 91% 0.0in /  0mm WeatherDisplay:10.37 W/m2 FEW
16:49 -6.9 °F /  -21.6 °C -8.2 °F /  -22.3 °C 1022.9in /  34635.4hPa Calm     91% 0.0in /  0mm WeatherDisplay:10.37 W/m2 FEW
16:54 -6.9 °F /  -21.6 °C -8.0 °F /  -22.2 °C 1022.9in /  34635.4hPa ESE 0.8mph /  1.3km/h 4.8mph /  7.7km/h 92% 0.0in /  0mm WeatherDisplay:10.37 W/m2 FEW
16:59 -6.9 °F /  -21.6 °C -8.0 °F /  -22.2 °C 1022.9in /  34635.4hPa ESE 5.8mph /  9.3km/h 13.0mph /  20.9km/h 92% 0.0in /  0mm WeatherDisplay:10.37 W/m2 FEW
17:04 -7.0 °F /  -21.7 °C -8.1 °F /  -22.3 °C 1023.2in /  34645.6hPa SE 3.4mph /  5.5km/h 4.8mph /  7.7km/h 92% 0.0in /  0mm WeatherDisplay:10.37 W/m2 FEW
17:09 -7.1 °F /  -21.7 °C -8.1 °F /  -22.3 °C 1023.2in /  34645.6hPa Calm     92% 0.0in /  0mm WeatherDisplay:10.37 W/m2 FEW
17:14 -7.1 °F /  -21.7 °C -8.1 °F /  -22.3 °C 1023.2in /  34645.6hPa Calm     92% 0.0in /  0mm WeatherDisplay:10.37 W/m2 FEW
17:19 -7.1 °F /  -21.7 °C -8.1 °F /  -22.3 °C 1023.2in /  34645.6hPa Calm     92% 0.0in /  0mm WeatherDisplay:10.37 W/m2 FEW
17:24 -7.1 °F /  -21.7 °C -8.1 °F /  -22.3 °C 1023.2in /  34645.6hPa Calm     92% 0.0in /  0mm WeatherDisplay:10.37 W/m2 FEW
17:29 -7.1 °F /  -21.7 °C -8.1 °F /  -22.3 °C 1023.2in /  34645.6hPa Calm     92% 0.0in /  0mm WeatherDisplay:10.37 W/m2 FEW
17:34 -7.1 °F /  -21.7 °C -8.1 °F /  -22.3 °C 1023.2in /  34645.6hPa Calm     92% 0.0in /  0mm WeatherDisplay:10.37 W/m2 FEW
17:39 -7.0 °F /  -21.7 °C -8.1 °F /  -22.3 °C 1023.2in /  34645.6hPa SE 3.7mph /  6km/h 7.4mph /  11.9km/h 92% 0.0in /  0mm WeatherDisplay:10.37 W/m2 FEW
17:44 -6.9 °F /  -21.6 °C -8.0 °F /  -22.2 °C 1022.9in /  34635.4hPa ESE 3.1mph /  5km/h 5.6mph /  9km/h 92% 0.0in /  0mm WeatherDisplay:10.37 W/m2 FEW
17:49 -6.9 °F /  -21.6 °C -8.0 °F /  -22.2 °C 1022.9in /  34635.4hPa ESE 4.3mph /  6.9km/h 5.6mph /  9km/h 92% 0.0in /  0mm WeatherDisplay:10.37 W/m2 FEW
17:54 -7.0 °F /  -21.7 °C -8.1 °F /  -22.3 °C 1023.2in /  34645.6hPa ESE 3.7mph /  6km/h 6.4mph /  10.3km/h 92% 0.0in /  0mm WeatherDisplay:10.37 W/m2 FEW
17:59 -7.0 °F /  -21.7 °C -8.1 °F /  -22.3 °C 1023.2in /  34645.6hPa Calm     92% 0.0in /  0mm WeatherDisplay:10.37 W/m2 FEW
18:04 -7.0 °F /  -21.7 °C -8.1 °F /  -22.3 °C 1023.2in /  34645.6hPa Calm     92% 0.0in /  0mm WeatherDisplay:10.37 W/m2 FEW
18:09 -7.0 °F /  -21.7 °C -8.1 °F /  -22.3 °C 1023.2in /  34645.6hPa ESE 1.1mph /  1.8km/h 3.7mph /  6km/h 92% 0.0in /  0mm WeatherDisplay:10.37 W/m2 FEW
18:14 -7.0 °F /  -21.7 °C -8.1 °F /  -22.3 °C 1023.2in /  34645.6hPa Calm     92% 0.0in /  0mm WeatherDisplay:10.37 W/m2 FEW
18:19 -7.0 °F /  -21.7 °C -8.1 °F /  -22.3 °C 1023.2in /  34645.6hPa Calm     92% 0.0in /  0mm WeatherDisplay:10.37 W/m2 FEW
18:24 -6.9 °F /  -21.6 °C -8.0 °F /  -22.2 °C 1023.2in /  34645.6hPa ESE 3.5mph /  5.6km/h 7.4mph /  11.9km/h 92% 0.0in /  0mm WeatherDisplay:10.37 W/m2 FEW
18:29 -6.9 °F /  -21.6 °C -8.0 °F /  -22.2 °C 1023.2in /  34645.6hPa ESE 1.3mph /  2.1km/h 3.7mph /  6km/h 92% 0.0in /  0mm WeatherDisplay:10.37 W/m2 FEW
18:34 -6.9 °F /  -21.6 °C -8.0 °F /  -22.2 °C 1022.9in /  34635.4hPa ESE 0.8mph /  1.3km/h 4.8mph /  7.7km/h 92% 0.0in /  0mm WeatherDisplay:10.37 W/m2 FEW
18:39 -6.9 °F /  -21.6 °C -8.0 °F /  -22.2 °C 1022.9in /  34635.4hPa ESE 1.0mph /  1.6km/h 5.6mph /  9km/h 92% 0.0in /  0mm WeatherDisplay:10.37 W/m2 FEW
18:44 -6.9 °F /  -21.6 °C -7.9 °F /  -22.2 °C 1022.9in /  34635.4hPa ESE 1.6mph /  2.6km/h 3.7mph /  6km/h 92% 0.0in /  0mm WeatherDisplay:10.37 W/m2 FEW
18:49 -6.8 °F /  -21.6 °C -7.9 °F /  -22.2 °C 1022.9in /  34635.4hPa ESE 3.4mph /  5.5km/h 11.1mph /  17.9km/h 92% 0.0in /  0mm WeatherDisplay:10.37 W/m2 FEW
18:54 -6.8 °F /  -21.6 °C -7.9 °F /  -22.2 °C 1023.2in /  34645.6hPa ESE 0.2mph /  0.3km/h 5.6mph /  9km/h 92% 0.0in /  0mm WeatherDisplay:10.37 W/m2 FEW
18:59 -6.8 °F /  -21.6 °C -7.9 °F /  -22.2 °C 1023.2in /  34645.6hPa ESE 1.6mph /  2.6km/h 5.6mph /  9km/h 92% 0.0in /  0mm WeatherDisplay:10.37 W/m2 FEW
19:04 -6.8 °F /  -21.6 °C -7.8 °F /  -22.1 °C 1023.2in /  34645.6hPa SE 1.8mph /  2.9km/h 4.8mph /  7.7km/h 92% 0.0in /  0mm WeatherDisplay:10.37 W/m2 FEW
19:09 -6.8 °F /  -21.6 °C -7.7 °F /  -22.1 °C 1023.2in /  34645.6hPa SE 1.4mph /  2.3km/h 5.6mph /  9km/h 93% 0.0in /  0mm WeatherDisplay:10.37 W/m2 FEW
19:14 -6.7 °F /  -21.5 °C -7.7 °F /  -22.1 °C 1023.2in /  34645.6hPa SE 1.6mph /  2.6km/h 1.6mph /  2.6km/h 93% 0.0in /  0mm WeatherDisplay:10.37 W/m2 FEW
19:19 -6.7 °F /  -21.5 °C -7.7 °F /  -22.1 °C 1023.2in /  34645.6hPa Calm     93% 0.0in /  0mm WeatherDisplay:10.37 W/m2 FEW
19:24 -6.7 °F /  -21.5 °C -7.7 °F /  -22.1 °C 1023.2in /  34645.6hPa Calm     93% 0.0in /  0mm WeatherDisplay:10.37 W/m2 FEW
19:29 -6.7 °F /  -21.5 °C -7.7 °F /  -22.1 °C 1023.2in /  34645.6hPa Calm     93% 0.0in /  0mm WeatherDisplay:10.37 W/m2 FEW
19:34 -6.7 °F /  -21.5 °C -7.6 °F /  -22 °C 1023.2in /  34645.6hPa Calm     93% 0.0in /  0mm WeatherDisplay:10.37 W/m2 FEW
19:39 -6.7 °F /  -21.5 °C -7.6 °F /  -22 °C 1023.2in /  34645.6hPa Calm     93% 0.0in /  0mm WeatherDisplay:10.37 W/m2 FEW
19:44 -6.7 °F /  -21.5 °C -7.6 °F /  -22 °C 1023.2in /  34645.6hPa Calm     93% 0.0in /  0mm WeatherDisplay:10.37 W/m2 FEW
19:49 -6.7 °F /  -21.5 °C -7.6 °F /  -22 °C 1023.2in /  34645.6hPa Calm     93% 0.0in /  0mm WeatherDisplay:10.37 W/m2 FEW
19:54 -6.6 °F /  -21.4 °C -7.6 °F /  -22 °C 1023.2in /  34645.6hPa Calm     93% 0.0in /  0mm WeatherDisplay:10.37 W/m2 FEW
19:59 -6.6 °F /  -21.4 °C -7.6 °F /  -22 °C 1023.2in /  34645.6hPa Calm     93% 0.0in /  0mm WeatherDisplay:10.37 W/m2 FEW
20:04 -6.6 °F /  -21.4 °C -7.5 °F /  -21.9 °C 1023.2in /  34645.6hPa Calm     93% 0.0in /  0mm WeatherDisplay:10.37 W/m2 FEW
20:09 -6.6 °F /  -21.4 °C -7.5 °F /  -21.9 °C 1023.2in /  34645.6hPa Calm     93% 0.0in /  0mm WeatherDisplay:10.37 W/m2 FEW
20:14 -6.5 °F /  -21.4 °C -7.4 °F /  -21.9 °C 1023.2in /  34645.6hPa Calm     93% 0.0in /  0mm WeatherDisplay:10.37 W/m2 FEW
20:19 -6.5 °F /  -21.4 °C -7.4 °F /  -21.9 °C 1023.2in /  34645.6hPa Calm     93% 0.0in /  0mm WeatherDisplay:10.37 W/m2 FEW
20:24 -6.5 °F /  -21.4 °C -7.4 °F /  -21.9 °C 1023.2in /  34645.6hPa Calm     93% 0.0in /  0mm WeatherDisplay:10.37 W/m2 FEW
20:29 -6.5 °F /  -21.4 °C -7.4 °F /  -21.9 °C 1023.2in /  34645.6hPa Calm     93% 0.0in /  0mm WeatherDisplay:10.37 W/m2 FEW
20:34 -6.4 °F /  -21.3 °C -7.4 °F /  -21.9 °C 1023.2in /  34645.6hPa Calm     93% 0.0in /  0mm WeatherDisplay:10.37 W/m2 FEW
20:39 -6.4 °F /  -21.3 °C -7.4 °F /  -21.9 °C 1023.2in /  34645.6hPa Calm     93% 0.0in /  0mm WeatherDisplay:10.37 W/m2 FEW
20:44 -6.4 °F /  -21.3 °C -7.4 °F /  -21.9 °C 1023.2in /  34645.6hPa Calm     93% 0.0in /  0mm WeatherDisplay:10.37 W/m2 FEW
20:49 -6.3 °F /  -21.3 °C -7.3 °F /  -21.8 °C 1023.2in /  34645.6hPa SE 1.8mph /  2.9km/h 5.6mph /  9km/h 93% 0.0in /  0mm WeatherDisplay:10.37 W/m2 FEW
20:54 -6.3 °F /  -21.3 °C -7.3 °F /  -21.8 °C 1023.2in /  34645.6hPa Calm     93% 0.0in /  0mm WeatherDisplay:10.37 W/m2 FEW
20:59 -6.3 °F /  -21.3 °C -7.2 °F /  -21.8 °C 1023.2in /  34645.6hPa Calm     93% 0.0in /  0mm WeatherDisplay:10.37 W/m2 FEW
21:04 -6.3 °F /  -21.3 °C -7.2 °F /  -21.8 °C 1023.2in /  34645.6hPa Calm     93% 0.0in /  0mm WeatherDisplay:10.37 W/m2 FEW
21:09 -6.2 °F /  -21.2 °C -7.2 °F /  -21.8 °C 1023.2in /  34645.6hPa Calm     93% 0.0in /  0mm WeatherDisplay:10.37 W/m2 FEW
21:14 -6.2 °F /  -21.2 °C -7.2 °F /  -21.8 °C 1023.2in /  34645.6hPa Calm     93% 0.0in /  0mm WeatherDisplay:10.37 W/m2 FEW
21:19 -6.2 °F /  -21.2 °C -7.2 °F /  -21.8 °C 1023.2in /  34645.6hPa Calm     93% 0.0in /  0mm WeatherDisplay:10.37 W/m2 FEW
21:24 -6.2 °F /  -21.2 °C -7.2 °F /  -21.8 °C 1023.2in /  34645.6hPa Calm     93% 0.0in /  0mm WeatherDisplay:10.37 W/m2 FEW
21:29 -6.2 °F /  -21.2 °C -7.2 °F /  -21.8 °C 1023.6in /  34659.1hPa Calm     93% 0.0in /  0mm WeatherDisplay:10.37 W/m2 FEW
21:34 -6.2 °F /  -21.2 °C -7.1 °F /  -21.7 °C 1023.2in /  34645.6hPa Calm     93% 0.0in /  0mm WeatherDisplay:10.37 W/m2 FEW
21:39 -6.2 °F /  -21.2 °C -7.1 °F /  -21.7 °C 1023.2in /  34645.6hPa Calm     93% 0.0in /  0mm WeatherDisplay:10.37 W/m2 FEW
21:44 -6.2 °F /  -21.2 °C -7.1 °F /  -21.7 °C 1023.6in /  34659.1hPa Calm     93% 0.0in /  0mm WeatherDisplay:10.37 W/m2 FEW
21:49 -6.2 °F /  -21.2 °C -7.1 °F /  -21.7 °C 1023.6in /  34659.1hPa Calm     93% 0.0in /  0mm WeatherDisplay:10.37 W/m2 FEW
21:54 -6.1 °F /  -21.2 °C -7.1 °F /  -21.7 °C 1023.6in /  34659.1hPa Calm     93% 0.0in /  0mm WeatherDisplay:10.37 W/m2 FEW
21:59 -6.1 °F /  -21.2 °C -7.1 °F /  -21.7 °C 1023.6in /  34659.1hPa Calm     93% 0.0in /  0mm WeatherDisplay:10.37 W/m2 FEW
22:04 -6.1 °F /  -21.2 °C -7.0 °F /  -21.7 °C 1023.6in /  34659.1hPa Calm     93% 0.0in /  0mm WeatherDisplay:10.37 W/m2 FEW
22:09 -6.0 °F /  -21.1 °C -6.9 °F /  -21.6 °C 1023.6in /  34659.1hPa Calm     93% 0.0in /  0mm WeatherDisplay:10.37 W/m2 FEW
22:14 -6.0 °F /  -21.1 °C -6.9 °F /  -21.6 °C 1023.6in /  34659.1hPa Calm     93% 0.0in /  0mm WeatherDisplay:10.37 W/m2 FEW
22:19 -5.9 °F /  -21.1 °C -6.9 °F /  -21.6 °C 1023.6in /  34659.1hPa Calm     93% 0.0in /  0mm WeatherDisplay:10.37 W/m2 FEW
22:24 -5.9 °F /  -21.1 °C -6.8 °F /  -21.6 °C 1023.6in /  34659.1hPa Calm     93% 0.0in /  0mm WeatherDisplay:10.37 W/m2 FEW
22:29 -5.9 °F /  -21.1 °C -6.8 °F /  -21.6 °C 1023.6in /  34659.1hPa Calm     93% 0.0in /  0mm WeatherDisplay:10.37 W/m2 FEW
22:34 -5.8 °F /  -21 °C -6.8 °F /  -21.6 °C 1023.6in /  34659.1hPa Calm     93% 0.0in /  0mm WeatherDisplay:10.37 W/m2 FEW
22:39 -5.8 °F /  -21 °C -6.8 °F /  -21.6 °C 1023.6in /  34659.1hPa Calm     93% 0.0in /  0mm WeatherDisplay:10.37 W/m2 FEW
22:45 -5.8 °F /  -21 °C -6.8 °F /  -21.6 °C 1023.6in /  34659.1hPa Calm     93% 0.0in /  0mm WeatherDisplay:10.37 W/m2 FEW
22:50 -5.9 °F /  -21.1 °C -6.9 °F /  -21.6 °C 1023.6in /  34659.1hPa Calm     93% 0.0in /  0mm WeatherDisplay:10.37 W/m2 FEW
22:55 -5.9 °F /  -21.1 °C -6.9 °F /  -21.6 °C 1023.6in /  34659.1hPa Calm     93% 0.0in /  0mm WeatherDisplay:10.37 W/m2 FEW
23:00 -5.9 °F /  -21.1 °C -6.9 °F /  -21.6 °C 1023.9in /  34669.3hPa Calm     93% 0.0in /  0mm WeatherDisplay:10.37 W/m2 FEW
23:05 -5.9 °F /  -21.1 °C -6.9 °F /  -21.6 °C 1023.9in /  34669.3hPa Calm     93% 0.0in /  0mm WeatherDisplay:10.37 W/m2 FEW
23:10 -5.9 °F /  -21.1 °C -6.8 °F /  -21.6 °C 1023.9in /  34669.3hPa Calm     93% 0.0in /  0mm WeatherDisplay:10.37 W/m2 FEW
23:16 -5.9 °F /  -21.1 °C -6.8 °F /  -21.6 °C 1023.9in /  34669.3hPa Calm     93% 0.0in /  0mm WeatherDisplay:10.37 W/m2 FEW
23:21 -5.8 °F /  -21 °C -6.8 °F /  -21.6 °C 1023.9in /  34669.3hPa Calm     93% 0.0in /  0mm WeatherDisplay:10.37 W/m2 FEW
23:26 -5.8 °F /  -21 °C -6.8 °F /  -21.6 °C 1023.9in /  34669.3hPa Calm     93% 0.0in /  0mm WeatherDisplay:10.37 W/m2 FEW
23:31 -5.8 °F /  -21 °C -6.8 °F /  -21.6 °C 1023.9in /  34669.3hPa Calm     93% 0.0in /  0mm WeatherDisplay:10.37 W/m2 FEW
23:36 -5.8 °F /  -21 °C -6.8 °F /  -21.6 °C 1023.9in /  34669.3hPa Calm     93% 0.0in /  0mm WeatherDisplay:10.37 W/m2 FEW
23:41 -5.8 °F /  -21 °C -6.8 °F /  -21.6 °C 1023.9in /  34669.3hPa Calm     93% 0.0in /  0mm WeatherDisplay:10.37 W/m2 FEW
23:46 -5.8 °F /  -21 °C -6.8 °F /  -21.6 °C 1023.9in /  34669.3hPa Calm     93% 0.0in /  0mm WeatherDisplay:10.37 W/m2 FEW
23:51 -5.8 °F /  -21 °C -6.8 °F /  -21.6 °C 1023.9in /  34669.3hPa SE 0.8mph /  1.3km/h 3.7mph /  6km/h 93% 0.0in /  0mm WeatherDisplay:10.37 W/m2 FEW
23:56 -5.8 °F /  -21 °C -6.8 °F /  -21.6 °C 1023.9in /  34669.3hPa Calm     93% 0.0in /  0mm WeatherDisplay:10.37 W/m2 FEW
Tuulensuunkaari, Veikkola, Suomi
Compliments of Weather Underground - 2.75 mb